sensor_id;sensor_type;location;lat;lon;timestamp;temperature;humidity
582;DHT22;277;50.074;8.436;2023-04-30T00:00:14;12.40;99.90
582;DHT22;277;50.074;8.436;2023-04-30T00:02:42;12.50;99.90
582;DHT22;277;50.074;8.436;2023-04-30T00:05:11;12.50;99.90
582;DHT22;277;50.074;8.436;2023-04-30T00:07:40;12.50;99.90
582;DHT22;277;50.074;8.436;2023-04-30T00:10:09;12.60;99.90
582;DHT22;277;50.074;8.436;2023-04-30T00:12:37;12.50;99.90
582;DHT22;277;50.074;8.436;2023-04-30T00:15:05;12.50;99.90
582;DHT22;277;50.074;8.436;2023-04-30T00:17:33;12.60;99.90
582;DHT22;277;50.074;8.436;2023-04-30T00:20:01;12.60;99.90
582;DHT22;277;50.074;8.436;2023-04-30T00:22:31;12.70;99.90
582;DHT22;277;50.074;8.436;2023-04-30T00:25:00;12.40;99.90
582;DHT22;277;50.074;8.436;2023-04-30T00:27:28;12.40;99.90
582;DHT22;277;50.074;8.436;2023-04-30T00:29:57;12.50;99.90
582;DHT22;277;50.074;8.436;2023-04-30T00:32:25;12.60;99.90
582;DHT22;277;50.074;8.436;2023-04-30T00:34:52;12.60;99.90
582;DHT22;277;50.074;8.436;2023-04-30T00:37:21;12.50;99.90
582;DHT22;277;50.074;8.436;2023-04-30T00:39:50;12.50;99.90
582;DHT22;277;50.074;8.436;2023-04-30T00:42:18;12.60;99.90
582;DHT22;277;50.074;8.436;2023-04-30T00:44:46;12.60;99.90
582;DHT22;277;50.074;8.436;2023-04-30T00:47:14;12.60;99.90
582;DHT22;277;50.074;8.436;2023-04-30T00:49:42;12.70;99.90
582;DHT22;277;50.074;8.436;2023-04-30T00:52:10;12.70;99.90
582;DHT22;277;50.074;8.436;2023-04-30T00:54:38;12.60;99.90
582;DHT22;277;50.074;8.436;2023-04-30T00:57:11;12.60;99.90
582;DHT22;277;50.074;8.436;2023-04-30T00:59:40;12.60;99.90
582;DHT22;277;50.074;8.436;2023-04-30T01:02:08;12.60;99.90
582;DHT22;277;50.074;8.436;2023-04-30T01:04:37;12.70;99.90
582;DHT22;277;50.074;8.436;2023-04-30T01:07:05;12.70;99.90
582;DHT22;277;50.074;8.436;2023-04-30T01:09:33;12.60;99.90
582;DHT22;277;50.074;8.436;2023-04-30T01:12:12;12.60;99.90
582;DHT22;277;50.074;8.436;2023-04-30T01:14:52;12.60;99.90
582;DHT22;277;50.074;8.436;2023-04-30T01:17:27;12.60;99.90
582;DHT22;277;50.074;8.436;2023-04-30T01:19:58;12.70;99.90
582;DHT22;277;50.074;8.436;2023-04-30T01:22:35;12.60;99.90
582;DHT22;277;50.074;8.436;2023-04-30T01:25:20;12.60;99.90
582;DHT22;277;50.074;8.436;2023-04-30T01:28:03;12.60;99.90
582;DHT22;277;50.074;8.436;2023-04-30T01:30:33;12.50;99.90
582;DHT22;277;50.074;8.436;2023-04-30T01:33:01;12.50;99.90
582;DHT22;277;50.074;8.436;2023-04-30T01:35:46;12.50;99.90
582;DHT22;277;50.074;8.436;2023-04-30T01:38:24;12.40;99.90
582;DHT22;277;50.074;8.436;2023-04-30T01:41:03;12.30;99.90
582;DHT22;277;50.074;8.436;2023-04-30T01:43:42;12.20;99.90
582;DHT22;277;50.074;8.436;2023-04-30T01:46:18;12.10;99.90
582;DHT22;277;50.074;8.436;2023-04-30T01:48:54;12.00;99.90
582;DHT22;277;50.074;8.436;2023-04-30T01:51:31;11.90;99.90
582;DHT22;277;50.074;8.436;2023-04-30T01:54:02;11.80;99.90
582;DHT22;277;50.074;8.436;2023-04-30T01:56:41;11.70;99.90
582;DHT22;277;50.074;8.436;2023-04-30T01:59:13;11.60;99.90
582;DHT22;277;50.074;8.436;2023-04-30T02:01:42;11.60;99.90
582;DHT22;277;50.074;8.436;2023-04-30T02:04:10;11.60;99.90
582;DHT22;277;50.074;8.436;2023-04-30T02:06:38;11.30;99.90
582;DHT22;277;50.074;8.436;2023-04-30T02:09:07;11.30;99.90
582;DHT22;277;50.074;8.436;2023-04-30T02:11:36;11.20;99.90
582;DHT22;277;50.074;8.436;2023-04-30T02:14:04;11.20;99.90
582;DHT22;277;50.074;8.436;2023-04-30T02:16:33;11.20;99.90
582;DHT22;277;50.074;8.436;2023-04-30T02:19:01;11.20;99.90
582;DHT22;277;50.074;8.436;2023-04-30T02:21:29;11.20;99.90
582;DHT22;277;50.074;8.436;2023-04-30T02:23:57;11.20;99.90
582;DHT22;277;50.074;8.436;2023-04-30T02:26:25;11.30;99.90
582;DHT22;277;50.074;8.436;2023-04-30T02:28:53;11.30;99.90
582;DHT22;277;50.074;8.436;2023-04-30T02:31:21;11.30;99.90
582;DHT22;277;50.074;8.436;2023-04-30T02:33:50;11.30;99.90
582;DHT22;277;50.074;8.436;2023-04-30T02:36:18;11.30;99.90
582;DHT22;277;50.074;8.436;2023-04-30T02:38:46;11.30;99.90
582;DHT22;277;50.074;8.436;2023-04-30T02:41:14;11.20;99.90
582;DHT22;277;50.074;8.436;2023-04-30T02:43:42;11.10;99.90
582;DHT22;277;50.074;8.436;2023-04-30T02:46:10;11.00;99.90
582;DHT22;277;50.074;8.436;2023-04-30T02:48:38;11.00;99.90
582;DHT22;277;50.074;8.436;2023-04-30T02:51:07;11.00;99.90
582;DHT22;277;50.074;8.436;2023-04-30T02:53:35;10.90;99.90
582;DHT22;277;50.074;8.436;2023-04-30T02:56:03;10.90;99.90
582;DHT22;277;50.074;8.436;2023-04-30T02:58:31;10.80;99.90
582;DHT22;277;50.074;8.436;2023-04-30T03:00:59;10.80;99.90
582;DHT22;277;50.074;8.436;2023-04-30T03:03:27;10.80;99.90
582;DHT22;277;50.074;8.436;2023-04-30T03:05:55;10.70;99.90
582;DHT22;277;50.074;8.436;2023-04-30T03:08:26;10.80;99.90
582;DHT22;277;50.074;8.436;2023-04-30T03:10:54;10.80;99.90
582;DHT22;277;50.074;8.436;2023-04-30T03:13:22;10.90;99.90
582;DHT22;277;50.074;8.436;2023-04-30T03:15:56;10.80;99.90
582;DHT22;277;50.074;8.436;2023-04-30T03:18:25;10.80;99.90
582;DHT22;277;50.074;8.436;2023-04-30T03:20:53;10.70;99.90
582;DHT22;277;50.074;8.436;2023-04-30T03:23:21;10.80;99.90
582;DHT22;277;50.074;8.436;2023-04-30T03:25:50;10.80;99.90
582;DHT22;277;50.074;8.436;2023-04-30T03:28:18;10.70;99.90
582;DHT22;277;50.074;8.436;2023-04-30T03:30:46;10.80;99.90
582;DHT22;277;50.074;8.436;2023-04-30T03:33:14;10.80;99.90
582;DHT22;277;50.074;8.436;2023-04-30T03:35:42;10.70;99.90
582;DHT22;277;50.074;8.436;2023-04-30T03:38:10;10.70;99.90
582;DHT22;277;50.074;8.436;2023-04-30T03:40:38;10.80;99.90
582;DHT22;277;50.074;8.436;2023-04-30T03:43:07;10.70;99.90
582;DHT22;277;50.074;8.436;2023-04-30T03:45:35;10.70;99.90
582;DHT22;277;50.074;8.436;2023-04-30T03:48:03;10.80;99.90
582;DHT22;277;50.074;8.436;2023-04-30T03:50:31;10.70;99.90
582;DHT22;277;50.074;8.436;2023-04-30T03:52:59;10.70;99.90
582;DHT22;277;50.074;8.436;2023-04-30T03:55:27;10.80;99.90
582;DHT22;277;50.074;8.436;2023-04-30T03:57:55;10.80;99.90
582;DHT22;277;50.074;8.436;2023-04-30T04:00:25;10.80;99.90
582;DHT22;277;50.074;8.436;2023-04-30T04:02:53;10.80;99.90
582;DHT22;277;50.074;8.436;2023-04-30T04:05:21;10.80;99.90
582;DHT22;277;50.074;8.436;2023-04-30T04:07:49;10.70;99.90
582;DHT22;277;50.074;8.436;2023-04-30T04:10:17;10.70;99.90
582;DHT22;277;50.074;8.436;2023-04-30T04:12:45;10.70;99.90
582;DHT22;277;50.074;8.436;2023-04-30T04:15:13;10.70;99.90
582;DHT22;277;50.074;8.436;2023-04-30T04:17:42;10.80;99.90
582;DHT22;277;50.074;8.436;2023-04-30T04:20:11;10.80;99.90
582;DHT22;277;50.074;8.436;2023-04-30T04:22:39;10.90;99.90
582;DHT22;277;50.074;8.436;2023-04-30T04:25:08;11.00;99.90
582;DHT22;277;50.074;8.436;2023-04-30T04:27:36;11.10;99.90
582;DHT22;277;50.074;8.436;2023-04-30T04:30:05;11.20;99.90
582;DHT22;277;50.074;8.436;2023-04-30T04:32:33;11.30;99.90
582;DHT22;277;50.074;8.436;2023-04-30T04:35:13;11.30;99.90
582;DHT22;277;50.074;8.436;2023-04-30T04:37:41;11.20;99.90
582;DHT22;277;50.074;8.436;2023-04-30T04:40:09;11.30;99.90
582;DHT22;277;50.074;8.436;2023-04-30T04:42:38;11.40;99.90
582;DHT22;277;50.074;8.436;2023-04-30T04:45:07;11.40;99.90
582;DHT22;277;50.074;8.436;2023-04-30T04:47:35;11.50;99.90
582;DHT22;277;50.074;8.436;2023-04-30T04:50:05;11.50;99.90
582;DHT22;277;50.074;8.436;2023-04-30T04:52:34;11.60;99.90
582;DHT22;277;50.074;8.436;2023-04-30T04:55:03;11.60;99.90
582;DHT22;277;50.074;8.436;2023-04-30T04:57:31;11.60;99.90
582;DHT22;277;50.074;8.436;2023-04-30T04:59:59;11.50;99.90
582;DHT22;277;50.074;8.436;2023-04-30T05:02:26;11.30;99.90
582;DHT22;277;50.074;8.436;2023-04-30T05:04:55;11.10;99.90
582;DHT22;277;50.074;8.436;2023-04-30T05:07:23;11.00;99.90
582;DHT22;277;50.074;8.436;2023-04-30T05:09:52;10.80;99.90
582;DHT22;277;50.074;8.436;2023-04-30T05:12:20;10.70;99.90
582;DHT22;277;50.074;8.436;2023-04-30T05:14:48;10.80;99.90
582;DHT22;277;50.074;8.436;2023-04-30T05:17:17;10.90;99.90
582;DHT22;277;50.074;8.436;2023-04-30T05:19:44;11.00;99.90
582;DHT22;277;50.074;8.436;2023-04-30T05:22:13;11.00;99.90
582;DHT22;277;50.074;8.436;2023-04-30T05:24:41;11.00;99.90
582;DHT22;277;50.074;8.436;2023-04-30T05:27:10;11.00;99.90
582;DHT22;277;50.074;8.436;2023-04-30T05:29:38;11.00;99.90
582;DHT22;277;50.074;8.436;2023-04-30T05:32:06;11.00;99.90
582;DHT22;277;50.074;8.436;2023-04-30T05:34:34;11.10;99.90
582;DHT22;277;50.074;8.436;2023-04-30T05:37:02;11.00;99.90
582;DHT22;277;50.074;8.436;2023-04-30T05:39:30;11.10;99.90
582;DHT22;277;50.074;8.436;2023-04-30T05:41:58;11.20;99.90
582;DHT22;277;50.074;8.436;2023-04-30T05:44:29;11.20;99.90
582;DHT22;277;50.074;8.436;2023-04-30T05:46:56;11.30;99.90
582;DHT22;277;50.074;8.436;2023-04-30T05:49:24;11.40;99.90
582;DHT22;277;50.074;8.436;2023-04-30T05:51:52;11.40;99.90
582;DHT22;277;50.074;8.436;2023-04-30T05:54:20;11.50;99.90
582;DHT22;277;50.074;8.436;2023-04-30T05:56:48;11.60;99.90
582;DHT22;277;50.074;8.436;2023-04-30T05:59:16;11.70;99.90
582;DHT22;277;50.074;8.436;2023-04-30T06:01:45;11.70;99.90
582;DHT22;277;50.074;8.436;2023-04-30T06:04:13;11.80;99.90
582;DHT22;277;50.074;8.436;2023-04-30T06:06:41;11.80;99.90
582;DHT22;277;50.074;8.436;2023-04-30T06:09:09;11.90;99.90
582;DHT22;277;50.074;8.436;2023-04-30T06:11:37;11.90;99.90
582;DHT22;277;50.074;8.436;2023-04-30T06:14:09;12.10;99.90
582;DHT22;277;50.074;8.436;2023-04-30T06:16:37;12.10;99.90
582;DHT22;277;50.074;8.436;2023-04-30T06:19:06;12.10;99.90
582;DHT22;277;50.074;8.436;2023-04-30T06:21:34;12.20;99.90
582;DHT22;277;50.074;8.436;2023-04-30T06:24:02;12.20;99.90
582;DHT22;277;50.074;8.436;2023-04-30T06:26:30;12.20;99.90
582;DHT22;277;50.074;8.436;2023-04-30T06:28:58;12.20;99.90
582;DHT22;277;50.074;8.436;2023-04-30T06:31:26;12.20;99.90
582;DHT22;277;50.074;8.436;2023-04-30T06:33:54;12.40;99.90
582;DHT22;277;50.074;8.436;2023-04-30T06:36:23;12.50;99.90
582;DHT22;277;50.074;8.436;2023-04-30T06:38:51;12.50;99.90
582;DHT22;277;50.074;8.436;2023-04-30T06:41:19;12.60;99.90
582;DHT22;277;50.074;8.436;2023-04-30T06:43:47;12.60;99.90
582;DHT22;277;50.074;8.436;2023-04-30T06:46:15;12.60;99.90
582;DHT22;277;50.074;8.436;2023-04-30T06:48:43;12.70;99.90
582;DHT22;277;50.074;8.436;2023-04-30T06:51:11;12.80;99.90
582;DHT22;277;50.074;8.436;2023-04-30T06:53:40;12.80;99.90
582;DHT22;277;50.074;8.436;2023-04-30T06:56:08;12.90;99.90
582;DHT22;277;50.074;8.436;2023-04-30T06:58:36;12.90;99.90
582;DHT22;277;50.074;8.436;2023-04-30T07:01:04;12.90;99.90
582;DHT22;277;50.074;8.436;2023-04-30T07:03:33;13.10;99.90
582;DHT22;277;50.074;8.436;2023-04-30T07:06:01;13.30;99.90
582;DHT22;277;50.074;8.436;2023-04-30T07:08:29;13.40;99.90
582;DHT22;277;50.074;8.436;2023-04-30T07:10:59;13.30;99.90
582;DHT22;277;50.074;8.436;2023-04-30T07:13:27;13.40;99.90
582;DHT22;277;50.074;8.436;2023-04-30T07:15:54;13.50;99.90
582;DHT22;277;50.074;8.436;2023-04-30T07:18:22;13.50;99.90
582;DHT22;277;50.074;8.436;2023-04-30T07:20:50;13.60;99.90
582;DHT22;277;50.074;8.436;2023-04-30T07:23:18;13.70;99.90
582;DHT22;277;50.074;8.436;2023-04-30T07:25:46;13.70;99.90
582;DHT22;277;50.074;8.436;2023-04-30T07:28:15;13.80;99.90
582;DHT22;277;50.074;8.436;2023-04-30T07:30:43;13.80;99.90
582;DHT22;277;50.074;8.436;2023-04-30T07:33:11;13.90;99.90
582;DHT22;277;50.074;8.436;2023-04-30T07:35:39;14.00;99.90
582;DHT22;277;50.074;8.436;2023-04-30T07:38:07;14.20;99.90
582;DHT22;277;50.074;8.436;2023-04-30T07:40:35;14.20;99.90
582;DHT22;277;50.074;8.436;2023-04-30T07:43:03;14.30;99.90
582;DHT22;277;50.074;8.436;2023-04-30T07:45:33;14.30;99.90
582;DHT22;277;50.074;8.436;2023-04-30T07:48:01;14.40;99.90
582;DHT22;277;50.074;8.436;2023-04-30T07:50:28;14.50;99.90
582;DHT22;277;50.074;8.436;2023-04-30T07:53:00;14.50;99.90
582;DHT22;277;50.074;8.436;2023-04-30T07:55:28;14.60;99.90
582;DHT22;277;50.074;8.436;2023-04-30T07:57:56;14.70;99.90
582;DHT22;277;50.074;8.436;2023-04-30T08:00:25;14.90;99.90
582;DHT22;277;50.074;8.436;2023-04-30T08:02:56;14.90;99.90
582;DHT22;277;50.074;8.436;2023-04-30T08:05:25;15.00;99.90
582;DHT22;277;50.074;8.436;2023-04-30T08:07:53;15.20;99.90
582;DHT22;277;50.074;8.436;2023-04-30T08:10:21;15.40;99.90
582;DHT22;277;50.074;8.436;2023-04-30T08:12:49;15.40;99.90
582;DHT22;277;50.074;8.436;2023-04-30T08:15:16;15.60;99.90
582;DHT22;277;50.074;8.436;2023-04-30T08:17:48;15.70;99.90
582;DHT22;277;50.074;8.436;2023-04-30T08:20:17;15.90;99.90
582;DHT22;277;50.074;8.436;2023-04-30T08:22:45;16.10;99.90
582;DHT22;277;50.074;8.436;2023-04-30T08:25:13;16.20;99.90
582;DHT22;277;50.074;8.436;2023-04-30T08:27:41;16.40;99.90
582;DHT22;277;50.074;8.436;2023-04-30T08:30:10;16.50;99.90
582;DHT22;277;50.074;8.436;2023-04-30T08:32:38;16.60;99.90
582;DHT22;277;50.074;8.436;2023-04-30T08:35:07;16.60;99.90
582;DHT22;277;50.074;8.436;2023-04-30T08:37:36;16.40;99.90
582;DHT22;277;50.074;8.436;2023-04-30T08:40:05;16.50;99.90
582;DHT22;277;50.074;8.436;2023-04-30T08:42:36;16.50;99.90
582;DHT22;277;50.074;8.436;2023-04-30T08:45:06;16.60;99.90
582;DHT22;277;50.074;8.436;2023-04-30T08:47:35;16.60;99.90
582;DHT22;277;50.074;8.436;2023-04-30T08:50:04;16.70;99.90
582;DHT22;277;50.074;8.436;2023-04-30T08:52:35;16.90;99.90
582;DHT22;277;50.074;8.436;2023-04-30T08:55:06;17.10;99.90
582;DHT22;277;50.074;8.436;2023-04-30T08:57:35;17.20;99.90
582;DHT22;277;50.074;8.436;2023-04-30T09:00:04;17.20;99.90
582;DHT22;277;50.074;8.436;2023-04-30T09:02:33;17.20;99.90
582;DHT22;277;50.074;8.436;2023-04-30T09:05:01;17.10;99.90
582;DHT22;277;50.074;8.436;2023-04-30T09:07:30;17.30;99.90
582;DHT22;277;50.074;8.436;2023-04-30T09:10:01;17.30;99.90
582;DHT22;277;50.074;8.436;2023-04-30T09:12:30;17.40;99.90
582;DHT22;277;50.074;8.436;2023-04-30T09:15:00;17.60;99.90
582;DHT22;277;50.074;8.436;2023-04-30T09:17:28;17.90;99.90
582;DHT22;277;50.074;8.436;2023-04-30T09:20:06;18.00;99.90
582;DHT22;277;50.074;8.436;2023-04-30T09:22:36;18.10;99.90
582;DHT22;277;50.074;8.436;2023-04-30T09:25:07;18.00;99.90
582;DHT22;277;50.074;8.436;2023-04-30T09:27:35;18.10;99.90
582;DHT22;277;50.074;8.436;2023-04-30T09:30:03;18.40;99.90
582;DHT22;277;50.074;8.436;2023-04-30T09:32:32;18.50;99.90
582;DHT22;277;50.074;8.436;2023-04-30T09:34:59;18.60;99.90
582;DHT22;277;50.074;8.436;2023-04-30T09:37:35;18.30;99.90
582;DHT22;277;50.074;8.436;2023-04-30T09:40:05;18.50;99.90
582;DHT22;277;50.074;8.436;2023-04-30T09:42:33;18.60;99.90
582;DHT22;277;50.074;8.436;2023-04-30T09:45:04;18.70;99.90
582;DHT22;277;50.074;8.436;2023-04-30T09:47:32;18.70;99.90
582;DHT22;277;50.074;8.436;2023-04-30T09:50:00;18.80;99.90
582;DHT22;277;50.074;8.436;2023-04-30T09:52:28;18.80;99.90
582;DHT22;277;50.074;8.436;2023-04-30T09:54:55;18.80;99.90
582;DHT22;277;50.074;8.436;2023-04-30T09:57:26;18.80;99.90
582;DHT22;277;50.074;8.436;2023-04-30T09:59:56;19.20;99.90
582;DHT22;277;50.074;8.436;2023-04-30T10:02:25;19.30;99.90
582;DHT22;277;50.074;8.436;2023-04-30T10:04:57;19.50;99.50
582;DHT22;277;50.074;8.436;2023-04-30T10:07:32;19.50;99.60
582;DHT22;277;50.074;8.436;2023-04-30T10:10:05;19.70;99.90
582;DHT22;277;50.074;8.436;2023-04-30T10:12:39;19.60;98.50
582;DHT22;277;50.074;8.436;2023-04-30T10:15:14;19.60;99.50
582;DHT22;277;50.074;8.436;2023-04-30T10:17:43;19.70;98.50
582;DHT22;277;50.074;8.436;2023-04-30T10:20:14;19.80;98.00
582;DHT22;277;50.074;8.436;2023-04-30T10:22:44;19.80;97.50
582;DHT22;277;50.074;8.436;2023-04-30T10:25:13;19.60;97.00
582;DHT22;277;50.074;8.436;2023-04-30T10:27:43;19.80;96.40
582;DHT22;277;50.074;8.436;2023-04-30T10:30:12;20.30;97.20
582;DHT22;277;50.074;8.436;2023-04-30T10:32:46;20.30;96.40
582;DHT22;277;50.074;8.436;2023-04-30T10:35:18;20.30;96.40
582;DHT22;277;50.074;8.436;2023-04-30T10:37:50;20.10;95.90
582;DHT22;277;50.074;8.436;2023-04-30T10:40:20;20.10;96.50
582;DHT22;277;50.074;8.436;2023-04-30T10:42:49;20.20;96.90
582;DHT22;277;50.074;8.436;2023-04-30T10:45:17;20.60;96.60
582;DHT22;277;50.074;8.436;2023-04-30T10:47:46;20.70;95.80
582;DHT22;277;50.074;8.436;2023-04-30T10:50:14;20.80;96.20
582;DHT22;277;50.074;8.436;2023-04-30T10:52:43;20.70;95.20
582;DHT22;277;50.074;8.436;2023-04-30T10:55:16;21.00;96.20
582;DHT22;277;50.074;8.436;2023-04-30T10:57:44;20.80;95.60
582;DHT22;277;50.074;8.436;2023-04-30T11:00:19;20.90;96.20
582;DHT22;277;50.074;8.436;2023-04-30T11:02:55;21.10;96.20
582;DHT22;277;50.074;8.436;2023-04-30T11:05:34;21.40;96.40
582;DHT22;277;50.074;8.436;2023-04-30T11:08:02;21.20;95.60
582;DHT22;277;50.074;8.436;2023-04-30T11:10:32;21.20;95.90
582;DHT22;277;50.074;8.436;2023-04-30T11:13:04;21.10;96.10
582;DHT22;277;50.074;8.436;2023-04-30T11:15:39;20.90;96.60
582;DHT22;277;50.074;8.436;2023-04-30T11:18:07;21.10;95.90
582;DHT22;277;50.074;8.436;2023-04-30T11:20:39;20.90;95.70
582;DHT22;277;50.074;8.436;2023-04-30T11:23:09;21.10;96.10
582;DHT22;277;50.074;8.436;2023-04-30T11:25:42;21.20;95.30
582;DHT22;277;50.074;8.436;2023-04-30T11:28:15;21.20;95.50
582;DHT22;277;50.074;8.436;2023-04-30T11:30:51;20.80;94.80
582;DHT22;277;50.074;8.436;2023-04-30T11:33:20;21.00;95.30
582;DHT22;277;50.074;8.436;2023-04-30T11:35:49;21.10;95.50
582;DHT22;277;50.074;8.436;2023-04-30T11:38:20;21.30;95.30
582;DHT22;277;50.074;8.436;2023-04-30T11:40:49;21.40;95.30
582;DHT22;277;50.074;8.436;2023-04-30T11:43:22;21.10;94.10
582;DHT22;277;50.074;8.436;2023-04-30T11:46:02;21.10;95.60
582;DHT22;277;50.074;8.436;2023-04-30T11:48:32;21.40;95.20
582;DHT22;277;50.074;8.436;2023-04-30T11:51:04;21.50;95.00
582;DHT22;277;50.074;8.436;2023-04-30T11:53:32;21.90;94.90
582;DHT22;277;50.074;8.436;2023-04-30T11:56:04;22.00;93.90
582;DHT22;277;50.074;8.436;2023-04-30T11:58:33;22.00;93.60
582;DHT22;277;50.074;8.436;2023-04-30T12:01:06;22.30;94.30
582;DHT22;277;50.074;8.436;2023-04-30T12:03:40;22.30;93.70
582;DHT22;277;50.074;8.436;2023-04-30T12:06:09;22.40;93.70
582;DHT22;277;50.074;8.436;2023-04-30T12:08:40;22.30;92.90
582;DHT22;277;50.074;8.436;2023-04-30T12:11:19;22.40;93.40
582;DHT22;277;50.074;8.436;2023-04-30T12:13:51;22.30;91.50
582;DHT22;277;50.074;8.436;2023-04-30T12:16:21;22.30;92.80
582;DHT22;277;50.074;8.436;2023-04-30T12:18:49;22.30;92.10
582;DHT22;277;50.074;8.436;2023-04-30T12:21:20;22.40;92.20
582;DHT22;277;50.074;8.436;2023-04-30T12:23:48;22.40;91.80
582;DHT22;277;50.074;8.436;2023-04-30T12:26:16;22.00;91.90
582;DHT22;277;50.074;8.436;2023-04-30T12:28:46;21.80;93.50
582;DHT22;277;50.074;8.436;2023-04-30T12:31:16;22.40;92.80
582;DHT22;277;50.074;8.436;2023-04-30T12:33:53;22.70;92.50
582;DHT22;277;50.074;8.436;2023-04-30T12:36:28;22.90;91.10
582;DHT22;277;50.074;8.436;2023-04-30T12:39:07;22.10;90.30
582;DHT22;277;50.074;8.436;2023-04-30T12:41:36;22.10;91.60
582;DHT22;277;50.074;8.436;2023-04-30T12:44:15;22.80;90.60
582;DHT22;277;50.074;8.436;2023-04-30T12:46:43;22.80;89.90
582;DHT22;277;50.074;8.436;2023-04-30T12:49:23;22.80;90.10
582;DHT22;277;50.074;8.436;2023-04-30T12:51:54;23.10;89.60
582;DHT22;277;50.074;8.436;2023-04-30T12:54:26;23.30;89.90
582;DHT22;277;50.074;8.436;2023-04-30T12:56:57;23.30;87.80
582;DHT22;277;50.074;8.436;2023-04-30T12:59:25;23.10;88.60
582;DHT22;277;50.074;8.436;2023-04-30T13:01:53;22.90;87.30
582;DHT22;277;50.074;8.436;2023-04-30T13:04:23;22.70;88.10
582;DHT22;277;50.074;8.436;2023-04-30T13:06:51;22.70;89.50
582;DHT22;277;50.074;8.436;2023-04-30T13:09:19;22.60;88.00
582;DHT22;277;50.074;8.436;2023-04-30T13:11:47;22.80;87.30
582;DHT22;277;50.074;8.436;2023-04-30T13:14:16;22.50;87.80
582;DHT22;277;50.074;8.436;2023-04-30T13:16:44;22.60;88.80
582;DHT22;277;50.074;8.436;2023-04-30T13:19:12;23.30;87.80
582;DHT22;277;50.074;8.436;2023-04-30T13:21:41;23.30;86.20
582;DHT22;277;50.074;8.436;2023-04-30T13:24:09;22.90;88.60
582;DHT22;277;50.074;8.436;2023-04-30T13:26:37;22.60;88.70
582;DHT22;277;50.074;8.436;2023-04-30T13:29:05;22.30;89.20
582;DHT22;277;50.074;8.436;2023-04-30T13:31:33;22.50;88.80
582;DHT22;277;50.074;8.436;2023-04-30T13:34:01;22.90;88.80
582;DHT22;277;50.074;8.436;2023-04-30T13:36:29;22.90;88.10
582;DHT22;277;50.074;8.436;2023-04-30T13:38:58;22.30;87.70
582;DHT22;277;50.074;8.436;2023-04-30T13:41:26;21.90;87.60
582;DHT22;277;50.074;8.436;2023-04-30T13:43:54;22.10;88.40
582;DHT22;277;50.074;8.436;2023-04-30T13:46:22;22.40;87.30
582;DHT22;277;50.074;8.436;2023-04-30T13:48:50;22.70;87.70
582;DHT22;277;50.074;8.436;2023-04-30T13:51:19;23.00;88.70
582;DHT22;277;50.074;8.436;2023-04-30T13:53:47;23.40;88.30
582;DHT22;277;50.074;8.436;2023-04-30T13:56:16;23.50;86.80
582;DHT22;277;50.074;8.436;2023-04-30T13:58:44;23.50;86.20
582;DHT22;277;50.074;8.436;2023-04-30T14:01:13;23.40;87.10
582;DHT22;277;50.074;8.436;2023-04-30T14:03:41;22.70;86.20
582;DHT22;277;50.074;8.436;2023-04-30T14:06:09;21.80;88.40
582;DHT22;277;50.074;8.436;2023-04-30T14:08:37;21.60;90.30
582;DHT22;277;50.074;8.436;2023-04-30T14:11:05;21.40;90.60
582;DHT22;277;50.074;8.436;2023-04-30T14:13:34;21.10;90.50
582;DHT22;277;50.074;8.436;2023-04-30T14:16:02;20.90;91.00
582;DHT22;277;50.074;8.436;2023-04-30T14:18:30;20.80;91.50
582;DHT22;277;50.074;8.436;2023-04-30T14:20:58;20.90;90.80
582;DHT22;277;50.074;8.436;2023-04-30T14:23:25;21.20;90.90
582;DHT22;277;50.074;8.436;2023-04-30T14:25:54;21.50;90.50
582;DHT22;277;50.074;8.436;2023-04-30T14:28:22;21.60;90.10
582;DHT22;277;50.074;8.436;2023-04-30T14:30:51;21.50;90.60
582;DHT22;277;50.074;8.436;2023-04-30T14:33:19;21.80;90.30
582;DHT22;277;50.074;8.436;2023-04-30T14:35:47;21.80;90.70
582;DHT22;277;50.074;8.436;2023-04-30T14:38:15;22.20;90.60
582;DHT22;277;50.074;8.436;2023-04-30T14:40:43;22.20;90.30
582;DHT22;277;50.074;8.436;2023-04-30T14:43:11;22.20;89.50
582;DHT22;277;50.074;8.436;2023-04-30T14:45:39;22.30;89.30
582;DHT22;277;50.074;8.436;2023-04-30T14:48:08;22.40;88.10
582;DHT22;277;50.074;8.436;2023-04-30T14:50:36;22.80;88.10
582;DHT22;277;50.074;8.436;2023-04-30T14:53:04;23.00;87.40
582;DHT22;277;50.074;8.436;2023-04-30T14:55:32;23.10;87.50
582;DHT22;277;50.074;8.436;2023-04-30T14:58:00;23.00;86.10
582;DHT22;277;50.074;8.436;2023-04-30T15:00:28;23.00;87.00
582;DHT22;277;50.074;8.436;2023-04-30T15:02:56;22.90;86.00
582;DHT22;277;50.074;8.436;2023-04-30T15:05:25;22.70;87.40
582;DHT22;277;50.074;8.436;2023-04-30T15:07:53;22.90;88.80
582;DHT22;277;50.074;8.436;2023-04-30T15:10:21;23.30;87.20
582;DHT22;277;50.074;8.436;2023-04-30T15:12:49;23.30;86.00
582;DHT22;277;50.074;8.436;2023-04-30T15:15:17;23.60;87.70
582;DHT22;277;50.074;8.436;2023-04-30T15:17:48;23.50;86.10
582;DHT22;277;50.074;8.436;2023-04-30T15:20:16;23.20;86.20
582;DHT22;277;50.074;8.436;2023-04-30T15:22:45;22.80;86.60
582;DHT22;277;50.074;8.436;2023-04-30T15:25:13;22.50;87.60
582;DHT22;277;50.074;8.436;2023-04-30T15:27:41;22.00;88.10
582;DHT22;277;50.074;8.436;2023-04-30T15:30:09;21.70;88.30
582;DHT22;277;50.074;8.436;2023-04-30T15:32:37;21.60;89.10
582;DHT22;277;50.074;8.436;2023-04-30T15:35:06;21.10;89.00
582;DHT22;277;50.074;8.436;2023-04-30T15:37:34;20.80;89.70
582;DHT22;277;50.074;8.436;2023-04-30T15:40:04;20.80;90.20
582;DHT22;277;50.074;8.436;2023-04-30T15:42:32;21.10;90.30
582;DHT22;277;50.074;8.436;2023-04-30T15:45:00;21.50;90.80
582;DHT22;277;50.074;8.436;2023-04-30T15:47:28;21.70;88.90
582;DHT22;277;50.074;8.436;2023-04-30T15:49:56;22.00;89.10
582;DHT22;277;50.074;8.436;2023-04-30T15:52:24;22.40;88.60
582;DHT22;277;50.074;8.436;2023-04-30T15:54:52;22.30;89.90
582;DHT22;277;50.074;8.436;2023-04-30T15:57:21;22.10;89.00
582;DHT22;277;50.074;8.436;2023-04-30T15:59:49;22.00;87.90
582;DHT22;277;50.074;8.436;2023-04-30T16:02:17;21.70;88.50
582;DHT22;277;50.074;8.436;2023-04-30T16:04:45;21.40;90.20
582;DHT22;277;50.074;8.436;2023-04-30T16:07:13;21.10;90.40
582;DHT22;277;50.074;8.436;2023-04-30T16:09:41;20.70;90.70
582;DHT22;277;50.074;8.436;2023-04-30T16:12:11;20.30;91.20
582;DHT22;277;50.074;8.436;2023-04-30T16:14:40;20.00;91.70
582;DHT22;277;50.074;8.436;2023-04-30T16:17:08;19.80;91.70
582;DHT22;277;50.074;8.436;2023-04-30T16:19:36;19.70;91.90
582;DHT22;277;50.074;8.436;2023-04-30T16:22:04;19.50;92.40
582;DHT22;277;50.074;8.436;2023-04-30T16:24:34;19.40;92.10
582;DHT22;277;50.074;8.436;2023-04-30T16:27:02;19.20;92.20
582;DHT22;277;50.074;8.436;2023-04-30T16:29:30;19.20;92.60
582;DHT22;277;50.074;8.436;2023-04-30T16:31:59;19.20;92.30
582;DHT22;277;50.074;8.436;2023-04-30T16:34:27;19.20;93.10
582;DHT22;277;50.074;8.436;2023-04-30T16:36:55;19.10;93.10
582;DHT22;277;50.074;8.436;2023-04-30T16:39:23;19.10;93.50
582;DHT22;277;50.074;8.436;2023-04-30T16:41:51;19.00;92.90
582;DHT22;277;50.074;8.436;2023-04-30T16:44:18;18.90;93.20
582;DHT22;277;50.074;8.436;2023-04-30T16:46:47;18.90;93.40